This is the latest recevied weather packets stored in our database for station/object OH1KK. If no packets are shown the sender has not sent any weather packets the latest 10 day(s).
| Time | Temp. | Humidity | Pressure | Rain* | Wind** | Luminosity | Snow |
|---|---|---|---|---|---|---|---|
| 1778023182 | 1.11° C | 74% | 995.8 hPa | 0 mm | - | - | - |
| 1778022266 | 1.11° C | 74% | 995.6 hPa | 0 mm | - | - | - |
| 1778021350 | 1.11° C | 73% | 995.5 hPa | 0 mm | - | - | - |
| 1778020497 | 1.67° C | 72% | 995.7 hPa | 0 mm | - | - | - |
| 1778018666 | 2.22° C | 68% | 995.6 hPa | 0 mm | - | - | - |
| 1778017750 | 2.22° C | 67% | 995.4 hPa | 0 mm | - | - | - |
| 1778016897 | 2.22° C | 67% | 995.4 hPa | 0 mm | - | - | - |
| 1778015981 | 2.22° C | 66% | 995.3 hPa | 0 mm | - | - | - |
| 1778014150 | 2.78° C | 64% | 995.2 hPa | 0 mm | - | - | - |
| 1778013296 | 2.78° C | 63% | 995.1 hPa | 0 mm | - | - | - |
| 1778012381 | 3.33° C | 62% | 995 hPa | 0 mm | - | - | - |
| 1778011466 | 3.89° C | 60% | 995 hPa | 0 mm | - | - | - |
| 1778007866 | 5.56° C | 52% | 994.5 hPa | 0 mm | - | - | - |
| 1778006957 | 5.56° C | 52% | 994.8 hPa | 0 mm | - | - | - |
| 1778006097 | 6.11° C | 49% | 994.5 hPa | 0 mm | - | - | - |
| 1778005182 | 6.11° C | 48% | 994.4 hPa | 0 mm | - | - | - |
| 1778004267 | 6.67° C | 46% | 994.5 hPa | 0 mm | - | - | - |
| 1778003352 | 7.22° C | 44% | 994.2 hPa | 0 mm | - | - | - |
| 1778002498 | 7.78° C | 42% | 993.9 hPa | 0 mm | - | - | - |
| 1778000668 | 8.33° C | 38% | 993.7 hPa | 0 mm | - | - | - |
| 1777999753 | 8.33° C | 38% | 993.7 hPa | 0 mm | - | - | - |
| 1777997069 | 8.89° C | 35% | 993.6 hPa | 0 mm | - | - | - |
| 1777996153 | 9.44° C | 33% | 993.6 hPa | 0 mm | - | - | - |
| 1777995299 | 8.89° C | 32% | 993.5 hPa | 0 mm | - | - | - |
| 1777994384 | 9.44° C | 35% | 993.3 hPa | 0 mm | - | - | - |
* Rain latest hour (hover to see other rain measurements)
** Current wind speed in m/s (hover to see current wind gust speed)